Unbenanntes Dokument
Flugplatz Bielefeld Platzwetter

 

Aktuelles Platzwetter am Flugplatz Bielefeld EDLI

20.09.18 ,18:35 Uhr

METAR EDLI 201835Z 12003KT 9999 19/10 Q1013

 

Windwerte

 

Wolkenuntergrenzen

Wind aktuell:110 ° mit 3 kt
Wind 10 min Extrem:
100 ° bis 150 ° mit 2 kt bis 4 kt
Seitenwindkomponente: 0.1 kt
Wolkengrenze 1:
Wolkengrenze 2:
Wolkengrenze 3:

Webcam

Temperatur

       

Sichtweite:

20.000 Meter

19.6 °C
Taupunkt: 10.1 °C
Luftfeuchtigkeit: 54 %

Luftdruck:

QNH: 1013 hPa (29.91 in Hg)
QFE: 997 hPa (29.44 in Hg)

Diese Daten werden automatisch ermittelt bzw. übertragen und sind nicht geprüft. Für die Richtigkeit wird daher keine Gewähr übernommen. Sie ersetzen im übrigen nicht die Flugwetterberatung. Alle Zeitangaben beziehen sich auf UTC. Die Seite wird einmal die Minute aktualisiert! Sollten Sie ein ältere Seite haben, so drücken Sie bitte auf den Reload Button Ihres Browsers!